createdAt,value
2022-08-02T00:03:35.545Z,2.30
2022-08-02T00:08:37.737Z,2.53
2022-08-02T00:13:39.732Z,3.17
2022-08-02T00:18:41.646Z,2.88
2022-08-02T00:24:03.150Z,3.05
2022-08-02T00:29:05.747Z,3.33
2022-08-02T00:34:29.879Z,2.65
2022-08-02T00:39:34.401Z,3.05
2022-08-02T00:44:37.605Z,3.35
2022-08-02T00:49:39.524Z,2.97
2022-08-02T00:54:41.622Z,3.20
2022-08-02T00:59:43.539Z,3.35
2022-08-02T01:04:45.466Z,3.20
2022-08-02T01:09:47.502Z,3.35
2022-08-02T01:14:56.925Z,3.10
2022-08-02T01:20:24.059Z,3.30
2022-08-02T01:25:53.486Z,3.15
2022-08-02T01:31:08.580Z,3.17
2022-08-02T01:36:12.999Z,2.97
2022-08-02T01:41:24.633Z,3.13
2022-08-02T01:46:29.149Z,2.90
2022-08-02T01:51:52.357Z,3.60
2022-08-02T01:56:56.376Z,3.47
2022-08-02T02:02:00.197Z,3.47
2022-08-02T02:07:02.904Z,3.70
2022-08-02T02:12:13.319Z,3.70
2022-08-02T02:17:53.023Z,3.83
2022-08-02T02:22:38.955Z,3.25
2022-08-02T02:27:49.896Z,3.65
2022-08-02T02:32:53.688Z,3.70
2022-08-02T02:37:58.433Z,3.90
2022-08-02T02:43:02.005Z,3.75
2022-08-02T02:48:06.076Z,3.25
2022-08-02T02:53:10.215Z,3.50
2022-08-02T02:58:13.176Z,3.60
2022-08-02T03:03:16.040Z,3.72
2022-08-02T03:08:21.676Z,3.60
2022-08-02T03:13:24.264Z,3.60
2022-08-02T03:18:37.701Z,3.78
2022-08-02T03:23:42.051Z,3.50
2022-08-02T03:28:44.446Z,3.42
2022-08-02T03:33:46.817Z,3.13
2022-08-02T03:38:51.322Z,3.15
2022-08-02T03:43:54.547Z,3.42
2022-08-02T03:48:57.538Z,3.67
2022-08-02T03:54:00.019Z,3.80
2022-08-02T03:59:11.779Z,3.85
2022-08-02T04:04:13.630Z,3.65
2022-08-02T04:09:15.500Z,4.30
2022-08-02T04:14:18.102Z,3.70
2022-08-02T04:19:45.057Z,4.00
2022-08-02T04:24:51.863Z,3.90
2022-08-02T04:29:54.890Z,3.80
2022-08-02T04:35:18.799Z,3.75
2022-08-02T04:40:19.409Z,3.72
2022-08-02T04:45:22.261Z,4.40
2022-08-02T04:50:24.117Z,3.97
2022-08-02T04:55:28.777Z,3.90
2022-08-02T05:00:32.445Z,4.55
2022-08-02T05:05:34.488Z,4.38
2022-08-02T05:10:36.367Z,4.55
2022-08-02T05:15:38.310Z,4.75
2022-08-02T05:20:40.375Z,4.47
2022-08-02T05:25:42.365Z,4.40
2022-08-02T05:30:44.383Z,4.53
2022-08-02T05:35:46.325Z,4.28
2022-08-02T05:40:54.862Z,4.47
2022-08-02T05:45:57.169Z,4.97
2022-08-02T05:51:29.803Z,5.40
2022-08-02T05:56:44.565Z,5.40
2022-08-02T06:01:49.159Z,5.80
2022-08-02T06:06:55.453Z,6.32
2022-08-02T06:12:01.672Z,6.20
2022-08-02T06:17:05.311Z,5.05
2022-08-02T06:22:32.746Z,4.88
2022-08-02T06:27:39.885Z,4.15
2022-08-02T06:32:44.230Z,3.72
2022-08-02T06:37:58.928Z,3.30
2022-08-02T06:43:06.548Z,2.92
2022-08-02T06:48:09.577Z,2.58
2022-08-02T06:53:12.330Z,2.30
2022-08-02T06:58:14.617Z,2.17
2022-08-02T07:03:18.031Z,2.10
2022-08-02T07:08:20.418Z,1.77
2022-08-02T07:13:22.247Z,1.73
2022-08-02T07:18:24.920Z,1.80
2022-08-02T07:23:26.997Z,1.40
2022-08-02T07:28:29.087Z,1.80
2022-08-02T07:33:37.607Z,1.83
2022-08-02T07:38:41.709Z,2.08
2022-08-02T07:43:43.928Z,1.90
2022-08-02T07:48:48.137Z,2.13
2022-08-02T07:54:02.084Z,1.92
2022-08-02T07:59:05.185Z,1.52
2022-08-02T08:04:07.230Z,1.10
2022-08-02T08:09:10.802Z,1.60
2022-08-02T08:14:16.655Z,1.35
2022-08-02T08:19:19.109Z,1.52
2022-08-02T08:24:21.007Z,1.38
2022-08-02T08:29:24.435Z,1.40
2022-08-02T08:34:30.713Z,1.23
2022-08-02T08:39:32.797Z,1.45
2022-08-02T08:44:36.057Z,1.25
2022-08-02T08:49:52.592Z,1.08
2022-08-02T08:54:56.528Z,1.00
2022-08-02T09:00:01.798Z,1.08
2022-08-02T09:05:03.966Z,1.40
2022-08-02T09:10:37.719Z,1.20
2022-08-02T09:15:41.676Z,1.20
2022-08-02T09:20:58.697Z,1.40
2022-08-02T09:26:09.943Z,1.55
2022-08-02T09:31:20.330Z,1.40
2022-08-02T09:36:23.108Z,1.20
2022-08-02T09:41:27.986Z,1.38
2022-08-02T09:46:32.267Z,1.50
2022-08-02T09:51:36.792Z,1.58
2022-08-02T09:56:54.581Z,1.33
2022-08-02T10:02:17.645Z,1.40
2022-08-02T10:07:22.732Z,1.80
2022-08-02T10:12:25.150Z,1.52
2022-08-02T10:17:27.792Z,1.23
2022-08-02T10:22:30.108Z,1.20
2022-08-02T10:27:49.298Z,1.38
2022-08-02T10:32:59.145Z,1.60
2022-08-02T10:38:04.033Z,1.20
2022-08-02T10:43:05.912Z,1.33
2022-08-02T10:48:07.882Z,1.38
2022-08-02T10:53:26.841Z,1.30
2022-08-02T10:58:33.600Z,0.90
2022-08-02T11:03:40.017Z,1.05
2022-08-02T11:08:42.564Z,1.00
2022-08-02T11:14:08.867Z,0.98
2022-08-02T11:19:11.905Z,1.00
2022-08-02T11:24:29.114Z,1.20
2022-08-02T11:29:39.028Z,1.02
2022-08-02T11:34:42.832Z,0.93
2022-08-02T11:39:52.605Z,1.27
2022-08-02T11:44:56.145Z,1.00
2022-08-02T11:50:06.487Z,1.17
2022-08-02T11:55:09.928Z,0.93
2022-08-02T12:00:17.541Z,1.33
2022-08-02T12:05:22.758Z,0.90
2022-08-02T12:10:32.451Z,1.20
2022-08-02T12:15:46.092Z,0.80
2022-08-02T12:20:48.289Z,0.90
2022-08-02T12:26:07.486Z,1.00
2022-08-02T12:31:11.210Z,0.80
2022-08-02T12:36:22.212Z,1.23
2022-08-02T12:41:30.508Z,1.00
2022-08-02T12:46:41.953Z,1.08
2022-08-02T12:51:59.024Z,1.13
2022-08-02T12:57:14.034Z,1.02
2022-08-02T13:02:17.299Z,0.93
2022-08-02T13:07:19.708Z,0.90
2022-08-02T13:12:21.756Z,0.98
2022-08-02T13:17:23.806Z,1.08
2022-08-02T13:22:26.043Z,1.10
2022-08-02T13:27:32.101Z,0.98
2022-08-02T13:32:34.100Z,1.02
2022-08-02T13:37:40.043Z,0.98
2022-08-02T13:42:42.764Z,1.10
2022-08-02T13:48:03.345Z,1.00
2022-08-02T13:53:06.898Z,1.00
2022-08-02T13:58:09.689Z,1.02
2022-08-02T14:03:11.978Z,1.10
2022-08-02T14:08:16.946Z,1.13
2022-08-02T14:13:19.495Z,1.10
2022-08-02T14:18:21.833Z,1.00
2022-08-02T14:23:50.035Z,1.00
2022-08-02T14:28:45.919Z,1.10
2022-08-02T14:33:52.238Z,0.88
2022-08-02T14:38:54.200Z,1.00
2022-08-02T14:44:04.993Z,1.15
2022-08-02T14:49:09.657Z,1.00
2022-08-02T14:54:14.711Z,1.13
2022-08-02T14:59:16.828Z,1.00
2022-08-02T15:04:18.810Z,1.00
2022-08-02T15:09:21.592Z,1.20
2022-08-02T15:14:26.272Z,0.98
2022-08-02T15:19:41.647Z,1.13
2022-08-02T15:24:51.117Z,1.10
2022-08-02T15:29:59.853Z,1.42
2022-08-02T15:35:01.984Z,1.00
2022-08-02T15:40:04.525Z,1.00
2022-08-02T15:45:06.796Z,0.90
2022-08-02T15:50:10.730Z,1.23
2022-08-02T15:55:13.609Z,1.20
2022-08-02T16:00:18.810Z,0.80
2022-08-02T16:05:21.646Z,0.88
2022-08-02T16:10:23.589Z,2.45
2022-08-02T16:15:26.282Z,1.30
2022-08-02T16:20:28.258Z,1.15
2022-08-02T16:25:30.321Z,0.88
2022-08-02T16:30:32.325Z,0.98
2022-08-02T16:35:35.007Z,1.50
2022-08-02T16:40:37.059Z,4.15
2022-08-02T16:45:39.113Z,4.82
2022-08-02T16:50:41.325Z,1.20
2022-08-02T16:55:51.869Z,1.00
2022-08-02T17:00:55.177Z,1.00
2022-08-02T17:05:57.329Z,1.13
2022-08-02T17:11:03.358Z,1.52
2022-08-02T17:16:25.693Z,1.05
2022-08-02T17:21:28.802Z,1.38
2022-08-02T17:26:30.826Z,1.08
2022-08-02T17:36:55.849Z,1.55
2022-08-02T17:41:58.027Z,1.38
2022-08-02T17:47:00.160Z,1.48
2022-08-02T17:52:48.291Z,1.25
2022-08-02T17:57:57.010Z,1.30
2022-08-02T18:02:54.904Z,0.90
2022-08-02T18:13:19.642Z,0.95
2022-08-02T18:18:29.274Z,1.17
2022-08-02T18:23:32.002Z,1.40
2022-08-02T18:28:39.829Z,1.02
2022-08-02T18:33:59.731Z,1.10
2022-08-02T18:39:07.635Z,0.90
2022-08-02T18:44:11.056Z,1.00
2022-08-02T18:49:17.773Z,1.05
2022-08-02T18:54:26.818Z,1.10
2022-08-02T18:59:37.494Z,1.42
2022-08-02T19:04:43.584Z,1.27
2022-08-02T19:09:49.451Z,1.13
2022-08-02T19:14:51.872Z,1.20
2022-08-02T19:19:55.242Z,1.23
2022-08-02T19:25:01.176Z,1.10
2022-08-02T19:30:07.602Z,0.60
2022-08-02T19:35:24.142Z,1.45
2022-08-02T19:40:33.219Z,1.05
2022-08-02T19:45:49.123Z,1.20
2022-08-02T19:51:00.978Z,1.10
2022-08-02T19:56:04.270Z,0.98
2022-08-02T20:01:07.412Z,0.98
2022-08-02T20:06:18.037Z,1.10
2022-08-02T20:11:23.342Z,1.27
2022-08-02T20:16:27.714Z,0.80
2022-08-02T20:21:36.651Z,1.25
2022-08-02T20:26:47.230Z,1.27
2022-08-02T20:31:50.344Z,1.15
2022-08-02T20:36:54.004Z,1.20
2022-08-02T20:41:59.617Z,1.02
2022-08-02T20:47:03.296Z,1.00
2022-08-02T20:52:23.290Z,1.55
2022-08-02T20:57:48.484Z,1.00
2022-08-02T21:02:48.146Z,1.27
2022-08-02T21:07:53.480Z,1.10
2022-08-02T21:12:57.040Z,1.10
2022-08-02T21:18:08.062Z,1.10
2022-08-02T21:23:20.097Z,1.40
2022-08-02T21:28:22.354Z,1.50
2022-08-02T21:33:25.034Z,1.50
2022-08-02T21:38:35.452Z,1.13
2022-08-02T21:43:39.186Z,1.35
2022-08-02T21:48:41.337Z,1.50
2022-08-02T21:53:43.860Z,1.27
2022-08-02T21:59:15.705Z,1.70
2022-08-02T22:04:18.255Z,1.30
2022-08-02T22:09:43.475Z,1.83
2022-08-02T22:14:49.640Z,2.03
2022-08-02T22:19:57.144Z,1.67
2022-08-02T22:24:59.011Z,1.98
2022-08-02T22:30:02.527Z,2.25
2022-08-02T22:35:08.789Z,2.90
2022-08-02T22:40:13.221Z,1.60
2022-08-02T22:45:15.160Z,1.40
2022-08-02T22:50:17.241Z,1.58
2022-08-02T22:55:21.272Z,1.65
2022-08-02T22:58:51.272Z,1.17
2022-08-02T22:58:59.505Z,1.13
2022-08-02T23:00:24.301Z,1.35
2022-08-02T23:05:26.397Z,1.38
2022-08-02T23:10:28.373Z,1.77
2022-08-02T23:15:50.468Z,1.10
2022-08-02T23:20:52.349Z,1.23
2022-08-02T23:25:54.191Z,1.63
2022-08-02T23:30:56.406Z,1.15
2022-08-02T23:35:58.440Z,1.33
2022-08-02T23:41:03.984Z,1.33
2022-08-02T23:46:05.851Z,1.40
2022-08-02T23:51:07.840Z,1.73
2022-08-02T23:56:09.897Z,1.38
